EAG5519 SBTE-SBBR
Flight info
| Callsign | EAG5519 |
|---|---|
| Flight time | 1h 52m |
| Altitude | 38000 |
| Route | GUEST DCT KADAG DCT TOLAT |
| Aircraft | A20N/M-SDE2E3FGHIRWXY/LB1 |
Departure
| Time | 2026-05-09 02:19 |
|---|---|
| Airport | Senador Petrônio Portela Airport (SBTE) |
Arrival
| Time | 2026-05-09 04:11 |
|---|---|
| Airport | Presidente Juscelino Kubitschek International Airport (SBBR) |
| Time | Latitude | Longitude | Altitude | Speed | Heading |
|---|---|---|---|---|---|
| 2026-05-09 02:05 | -5.06414 | -42.82165 | 213 ft | 0 kts | 120° |
| 2026-05-09 02:11 | -5.06411 | -42.82171 | 219 ft | 4 kts | 116° |
| 2026-05-09 02:11 | -5.06399 | -42.82195 | 215 ft | 4 kts | 119° |
| 2026-05-09 02:12 | -5.06391 | -42.82206 | 215 ft | 2 kts | 148° |
| 2026-05-09 02:12 | -5.06381 | -42.82211 | 222 ft | 2 kts | 164° |
| 2026-05-09 02:12 | -5.06374 | -42.82213 | 214 ft | 0 kts | 167° |
| 2026-05-09 02:15 | -5.06385 | -42.82210 | 214 ft | 4 kts | 167° |
| 2026-05-09 02:15 | -5.06422 | -42.82205 | 214 ft | 7 kts | 174° |
| 2026-05-09 02:15 | -5.06480 | -42.82198 | 215 ft | 10 kts | 174° |
| 2026-05-09 02:15 | -5.06548 | -42.82215 | 216 ft | 11 kts | 215° |
| 2026-05-09 02:16 | -5.06622 | -42.82266 | 216 ft | 15 kts | 215° |
| 2026-05-09 02:16 | -5.06727 | -42.82296 | 213 ft | 17 kts | 182° |
| 2026-05-09 02:16 | -5.06856 | -42.82284 | 220 ft | 20 kts | 173° |
| 2026-05-09 02:16 | -5.06942 | -42.82305 | 212 ft | 10 kts | 195° |
| 2026-05-09 02:17 | -5.06984 | -42.82269 | 219 ft | 2 kts | 70° |
| 2026-05-09 02:17 | -5.06983 | -42.82269 | 219 ft | 0 kts | 52° |
| 2026-05-09 02:17 | -5.06982 | -42.82269 | 218 ft | 0 kts | 42° |
| 2026-05-09 02:17 | -5.06976 | -42.82271 | 216 ft | 0 kts | 351° |
| 2026-05-09 02:18 | -5.06975 | -42.82271 | 216 ft | 0 kts | 351° |
| 2026-05-09 02:18 | -5.06716 | -42.82299 | 214 ft | 79 kts | 353° |
| 2026-05-09 02:18 | -5.05935 | -42.82381 | 215 ft | 146 kts | 355° |
| 2026-05-09 02:18 | -5.04864 | -42.82473 | 539 ft | 167 kts | 356° |
| 2026-05-09 02:19 | -5.03725 | -42.82523 | 1331 ft | 161 kts | 0° |
| 2026-05-09 02:19 | -5.02631 | -42.82559 | 2118 ft | 154 kts | 355° |
| 2026-05-09 02:19 | -5.01905 | -42.82649 | 2448 ft | 172 kts | 354° |
| 2026-05-09 02:19 | -5.00773 | -42.82760 | 2669 ft | 207 kts | 356° |
| 2026-05-09 02:20 | -4.99432 | -42.83081 | 3264 ft | 226 kts | 331° |
| 2026-05-09 02:20 | -4.98239 | -42.84139 | 4102 ft | 241 kts | 301° |
| 2026-05-09 02:20 | -4.97704 | -42.85734 | 4999 ft | 250 kts | 270° |
| 2026-05-09 02:20 | -4.98029 | -42.87454 | 5875 ft | 256 kts | 239° |
| 2026-05-09 02:21 | -4.99016 | -42.88966 | 6759 ft | 265 kts | 231° |
| 2026-05-09 02:21 | -4.99995 | -42.90574 | 7616 ft | 276 kts | 241° |
| 2026-05-09 02:21 | -5.00687 | -42.92401 | 8487 ft | 286 kts | 252° |
| 2026-05-09 02:21 | -5.01111 | -42.94368 | 9395 ft | 292 kts | 259° |
| 2026-05-09 02:22 | -5.01377 | -42.96406 | 10266 ft | 297 kts | 263° |
| 2026-05-09 02:22 | -5.01577 | -42.98475 | 11109 ft | 301 kts | 264° |
| 2026-05-09 02:22 | -5.01762 | -43.00575 | 11974 ft | 304 kts | 264° |
| 2026-05-09 02:22 | -5.01965 | -43.02691 | 12864 ft | 306 kts | 259° |
| 2026-05-09 02:23 | -5.02707 | -43.04660 | 13780 ft | 303 kts | 234° |
| 2026-05-09 02:23 | -5.04185 | -43.06127 | 14583 ft | 299 kts | 209° |
| 2026-05-09 02:23 | -5.06101 | -43.06817 | 15415 ft | 293 kts | 184° |
| 2026-05-09 02:23 | -5.08122 | -43.06946 | 16267 ft | 290 kts | 180° |
| 2026-05-09 02:24 | -5.10127 | -43.07012 | 17153 ft | 286 kts | 180° |
| 2026-05-09 02:24 | -5.12098 | -43.07088 | 18051 ft | 280 kts | 181° |
| 2026-05-09 02:24 | -5.14044 | -43.07187 | 18704 ft | 282 kts | 182° |
| 2026-05-09 02:24 | -5.16071 | -43.07307 | 18916 ft | 302 kts | 182° |
| 2026-05-09 02:25 | -5.18243 | -43.07447 | 19078 ft | 323 kts | 182° |
| 2026-05-09 02:25 | -5.20552 | -43.07602 | 19246 ft | 343 kts | 182° |
| 2026-05-09 02:25 | -5.23003 | -43.07769 | 19416 ft | 363 kts | 183° |
| 2026-05-09 02:25 | -5.25588 | -43.07944 | 19588 ft | 382 kts | 183° |
| 2026-05-09 02:26 | -5.28307 | -43.08129 | 19765 ft | 400 kts | 183° |
| 2026-05-09 02:26 | -5.31113 | -43.08319 | 20221 ft | 408 kts | 183° |
| 2026-05-09 02:26 | -5.33950 | -43.08512 | 20882 ft | 410 kts | 183° |
| 2026-05-09 02:26 | -5.36807 | -43.08706 | 21479 ft | 413 kts | 183° |
| 2026-05-09 02:27 | -5.39684 | -43.08902 | 22050 ft | 416 kts | 183° |
| 2026-05-09 02:27 | -5.42581 | -43.09098 | 22607 ft | 419 kts | 183° |
| 2026-05-09 02:27 | -5.45501 | -43.09296 | 23142 ft | 422 kts | 183° |
| 2026-05-09 02:27 | -5.48440 | -43.09495 | 23630 ft | 425 kts | 183° |
| 2026-05-09 02:28 | -5.51401 | -43.09696 | 24051 ft | 428 kts | 183° |
| 2026-05-09 02:28 | -5.53618 | -43.09846 | 24366 ft | 430 kts | 183° |
| 2026-05-09 02:28 | -5.56608 | -43.10049 | 24772 ft | 432 kts | 183° |
| 2026-05-09 02:28 | -5.59609 | -43.10252 | 25189 ft | 434 kts | 183° |
| 2026-05-09 02:29 | -5.62620 | -43.10456 | 25535 ft | 436 kts | 184° |
| 2026-05-09 02:29 | -5.65630 | -43.10881 | 25848 ft | 439 kts | 192° |
| 2026-05-09 02:29 | -5.68550 | -43.11783 | 26172 ft | 442 kts | 201° |
| 2026-05-09 02:29 | -5.71316 | -43.13145 | 26490 ft | 444 kts | 211° |
| 2026-05-09 02:30 | -5.73966 | -43.14746 | 26809 ft | 446 kts | 211° |
| 2026-05-09 02:30 | -5.76636 | -43.16348 | 27126 ft | 448 kts | 211° |
| 2026-05-09 02:30 | -5.79317 | -43.17952 | 27430 ft | 449 kts | 211° |
| 2026-05-09 02:30 | -5.81999 | -43.19555 | 27722 ft | 452 kts | 211° |
| 2026-05-09 02:31 | -5.84689 | -43.21163 | 28028 ft | 453 kts | 211° |
| 2026-05-09 02:31 | -5.87409 | -43.22789 | 28322 ft | 455 kts | 211° |
| 2026-05-09 02:31 | -5.90129 | -43.24416 | 28610 ft | 457 kts | 211° |
| 2026-05-09 02:31 | -5.92867 | -43.26054 | 28886 ft | 459 kts | 211° |
| 2026-05-09 02:32 | -5.95613 | -43.27696 | 29151 ft | 460 kts | 211° |
| 2026-05-09 02:32 | -5.98367 | -43.29345 | 29422 ft | 462 kts | 211° |
| 2026-05-09 02:32 | -6.01139 | -43.31004 | 29690 ft | 464 kts | 211° |
| 2026-05-09 02:32 | -6.03910 | -43.32662 | 29955 ft | 466 kts | 211° |
| 2026-05-09 02:33 | -6.06696 | -43.34330 | 30197 ft | 467 kts | 211° |
| 2026-05-09 02:33 | -6.09494 | -43.36005 | 30463 ft | 468 kts | 211° |
| 2026-05-09 02:33 | -6.12288 | -43.37678 | 30713 ft | 469 kts | 211° |
| 2026-05-09 02:33 | -6.15095 | -43.39360 | 30979 ft | 470 kts | 211° |
| 2026-05-09 02:34 | -6.17907 | -43.41044 | 31302 ft | 470 kts | 211° |
| 2026-05-09 02:34 | -6.20707 | -43.42721 | 31672 ft | 468 kts | 211° |
| 2026-05-09 02:34 | -6.23497 | -43.44392 | 32036 ft | 466 kts | 211° |
| 2026-05-09 02:34 | -6.26276 | -43.46058 | 32395 ft | 465 kts | 211° |
| 2026-05-09 02:35 | -6.29049 | -43.47719 | 32752 ft | 463 kts | 212° |
| 2026-05-09 02:35 | -6.31814 | -43.49377 | 33103 ft | 462 kts | 212° |
| 2026-05-09 02:35 | -6.34562 | -43.51024 | 33447 ft | 460 kts | 212° |
| 2026-05-09 02:35 | -6.37310 | -43.52671 | 33777 ft | 459 kts | 212° |
| 2026-05-09 02:36 | -6.40045 | -43.54311 | 34070 ft | 457 kts | 212° |
| 2026-05-09 02:36 | -6.42767 | -43.55944 | 34338 ft | 456 kts | 212° |
| 2026-05-09 02:36 | -6.45495 | -43.57580 | 34588 ft | 456 kts | 212° |
| 2026-05-09 02:36 | -6.48216 | -43.59212 | 34831 ft | 455 kts | 212° |
| 2026-05-09 02:37 | -6.50933 | -43.60842 | 35060 ft | 455 kts | 212° |
| 2026-05-09 02:37 | -6.53644 | -43.62469 | 35299 ft | 454 kts | 212° |
| 2026-05-09 02:37 | -6.56352 | -43.64094 | 35525 ft | 453 kts | 212° |
| 2026-05-09 02:37 | -6.59090 | -43.65737 | 35756 ft | 453 kts | 212° |
| 2026-05-09 02:38 | -6.61767 | -43.67343 | 35989 ft | 452 kts | 212° |
| 2026-05-09 02:38 | -6.64464 | -43.68962 | 36207 ft | 452 kts | 212° |
| 2026-05-09 02:38 | -6.67166 | -43.70584 | 36433 ft | 451 kts | 212° |
| 2026-05-09 02:38 | -6.69857 | -43.72200 | 36645 ft | 450 kts | 212° |
| 2026-05-09 02:39 | -6.72546 | -43.73815 | 36864 ft | 450 kts | 212° |
| 2026-05-09 02:39 | -6.75223 | -43.75423 | 37068 ft | 449 kts | 212° |
| 2026-05-09 02:39 | -6.77908 | -43.77036 | 37273 ft | 449 kts | 212° |
| 2026-05-09 02:39 | -6.80586 | -43.78644 | 37467 ft | 448 kts | 212° |
| 2026-05-09 02:40 | -6.83259 | -43.80251 | 37651 ft | 448 kts | 212° |
| 2026-05-09 02:40 | -6.85939 | -43.81861 | 37827 ft | 448 kts | 212° |
| 2026-05-09 02:40 | -6.88578 | -43.83448 | 37944 ft | 449 kts | 212° |
| 2026-05-09 02:41 | -6.93092 | -43.86161 | 37952 ft | 455 kts | 212° |
| 2026-05-09 02:41 | -6.98564 | -43.89452 | 37951 ft | 461 kts | 212° |
| 2026-05-09 02:42 | -7.04094 | -43.92777 | 37953 ft | 466 kts | 212° |
| 2026-05-09 02:42 | -7.09669 | -43.96131 | 37953 ft | 469 kts | 212° |
| 2026-05-09 02:43 | -7.15286 | -43.99511 | 37951 ft | 471 kts | 212° |
| 2026-05-09 02:43 | -7.20924 | -44.02904 | 37954 ft | 473 kts | 212° |
| 2026-05-09 02:44 | -7.26576 | -44.06308 | 37955 ft | 474 kts | 212° |
| 2026-05-09 02:44 | -7.32110 | -44.09638 | 37962 ft | 448 kts | 212° |
| 2026-05-09 02:45 | -7.37381 | -44.12814 | 37964 ft | 442 kts | 212° |
| 2026-05-09 02:45 | -7.42693 | -44.16018 | 37967 ft | 448 kts | 212° |
| 2026-05-09 02:46 | -7.48033 | -44.19236 | 37961 ft | 447 kts | 212° |
| 2026-05-09 02:46 | -7.53375 | -44.22457 | 37969 ft | 447 kts | 212° |
| 2026-05-09 02:47 | -7.58713 | -44.25677 | 37969 ft | 447 kts | 212° |
| 2026-05-09 02:47 | -7.64054 | -44.28899 | 37974 ft | 447 kts | 212° |
| 2026-05-09 02:48 | -7.69396 | -44.32123 | 37970 ft | 447 kts | 212° |
| 2026-05-09 02:48 | -7.74732 | -44.35344 | 37974 ft | 447 kts | 212° |
| 2026-05-09 02:49 | -7.80064 | -44.38564 | 37976 ft | 447 kts | 212° |
| 2026-05-09 02:49 | -7.85434 | -44.41807 | 37976 ft | 447 kts | 212° |
| 2026-05-09 02:50 | -7.90767 | -44.45029 | 37975 ft | 447 kts | 213° |
| 2026-05-09 02:50 | -7.96099 | -44.48252 | 37979 ft | 447 kts | 213° |
| 2026-05-09 02:51 | -8.01430 | -44.51475 | 37980 ft | 446 kts | 213° |
| 2026-05-09 02:51 | -8.06789 | -44.54716 | 37976 ft | 446 kts | 213° |
| 2026-05-09 02:52 | -8.12113 | -44.57936 | 37979 ft | 446 kts | 213° |
| 2026-05-09 02:52 | -8.17428 | -44.61153 | 37978 ft | 445 kts | 213° |
| 2026-05-09 02:53 | -8.22730 | -44.64362 | 37980 ft | 446 kts | 213° |
| 2026-05-09 02:53 | -8.28068 | -44.67595 | 37980 ft | 445 kts | 213° |
| 2026-05-09 02:54 | -8.33376 | -44.70810 | 37975 ft | 445 kts | 213° |
| 2026-05-09 02:54 | -8.38657 | -44.74010 | 37980 ft | 446 kts | 213° |
| 2026-05-09 02:55 | -8.43979 | -44.77235 | 37983 ft | 446 kts | 213° |
| 2026-05-09 02:55 | -8.49289 | -44.80455 | 37988 ft | 446 kts | 213° |
| 2026-05-09 02:56 | -8.54613 | -44.83683 | 37982 ft | 446 kts | 213° |
| 2026-05-09 02:56 | -8.59931 | -44.86910 | 37989 ft | 446 kts | 213° |
| 2026-05-09 02:57 | -8.65245 | -44.90135 | 37992 ft | 446 kts | 213° |
| 2026-05-09 02:57 | -8.70567 | -44.93366 | 37994 ft | 446 kts | 213° |
| 2026-05-09 02:58 | -8.75877 | -44.96591 | 37989 ft | 446 kts | 213° |
| 2026-05-09 02:58 | -8.81225 | -44.99840 | 37989 ft | 445 kts | 213° |
| 2026-05-09 02:59 | -8.86525 | -45.03060 | 37996 ft | 445 kts | 213° |
| 2026-05-09 02:59 | -8.91825 | -45.06283 | 37998 ft | 445 kts | 213° |
| 2026-05-09 03:00 | -8.97112 | -45.09498 | 37992 ft | 444 kts | 213° |
| 2026-05-09 03:00 | -9.02401 | -45.12715 | 37997 ft | 444 kts | 213° |
| 2026-05-09 03:01 | -9.07690 | -45.15934 | 37993 ft | 443 kts | 213° |
| 2026-05-09 03:01 | -9.12970 | -45.19148 | 37988 ft | 443 kts | 213° |
| 2026-05-09 03:02 | -9.18250 | -45.22363 | 37991 ft | 443 kts | 213° |
| 2026-05-09 03:02 | -9.23529 | -45.25579 | 37990 ft | 443 kts | 213° |
| 2026-05-09 03:03 | -9.28807 | -45.28796 | 37988 ft | 442 kts | 213° |
| 2026-05-09 03:03 | -9.34079 | -45.32010 | 37990 ft | 442 kts | 213° |
| 2026-05-09 03:04 | -9.39347 | -45.35223 | 37984 ft | 442 kts | 213° |
| 2026-05-09 03:04 | -9.44619 | -45.38438 | 37989 ft | 442 kts | 213° |
| 2026-05-09 03:05 | -9.49886 | -45.41652 | 37980 ft | 442 kts | 213° |
| 2026-05-09 03:05 | -9.55151 | -45.44867 | 37983 ft | 442 kts | 213° |
| 2026-05-09 03:06 | -9.60419 | -45.48084 | 37987 ft | 442 kts | 213° |
| 2026-05-09 03:06 | -9.65682 | -45.51300 | 37992 ft | 442 kts | 213° |
| 2026-05-09 03:07 | -9.70943 | -45.54515 | 37983 ft | 442 kts | 213° |
| 2026-05-09 03:07 | -9.76212 | -45.57736 | 37988 ft | 442 kts | 213° |
| 2026-05-09 03:08 | -9.81485 | -45.60962 | 37984 ft | 442 kts | 213° |
| 2026-05-09 03:08 | -9.86758 | -45.64188 | 37994 ft | 442 kts | 213° |
| 2026-05-09 03:09 | -9.92026 | -45.67413 | 37987 ft | 442 kts | 213° |
| 2026-05-09 03:09 | -9.97281 | -45.70631 | 38000 ft | 443 kts | 213° |
| 2026-05-09 03:10 | -10.02565 | -45.73867 | 38002 ft | 443 kts | 214° |
| 2026-05-09 03:10 | -10.07837 | -45.77098 | 38013 ft | 443 kts | 214° |
| 2026-05-09 03:11 | -10.13061 | -45.80300 | 38008 ft | 443 kts | 214° |
| 2026-05-09 03:11 | -10.18335 | -45.83535 | 38014 ft | 442 kts | 214° |
| 2026-05-09 03:12 | -10.23598 | -45.86764 | 38016 ft | 443 kts | 214° |
| 2026-05-09 03:12 | -10.28858 | -45.89992 | 38021 ft | 442 kts | 214° |
| 2026-05-09 03:13 | -10.36744 | -45.94834 | 38023 ft | 442 kts | 214° |
| 2026-05-09 03:13 | -10.42009 | -45.98069 | 38019 ft | 442 kts | 214° |
| 2026-05-09 03:14 | -10.47261 | -46.01296 | 38023 ft | 441 kts | 214° |
| 2026-05-09 03:14 | -10.52508 | -46.04523 | 38020 ft | 441 kts | 214° |
| 2026-05-09 03:15 | -10.56903 | -46.07226 | 38022 ft | 441 kts | 214° |
| 2026-05-09 03:15 | -10.62146 | -46.10452 | 38025 ft | 440 kts | 214° |
| 2026-05-09 03:16 | -10.67389 | -46.13679 | 38021 ft | 440 kts | 214° |
| 2026-05-09 03:16 | -10.72624 | -46.16903 | 38009 ft | 440 kts | 214° |
| 2026-05-09 03:17 | -10.77861 | -46.20129 | 38017 ft | 440 kts | 214° |
| 2026-05-09 03:17 | -10.83089 | -46.23352 | 38008 ft | 440 kts | 214° |
| 2026-05-09 03:18 | -10.88318 | -46.26575 | 38002 ft | 440 kts | 214° |
| 2026-05-09 03:18 | -10.93569 | -46.29814 | 38004 ft | 440 kts | 214° |
| 2026-05-09 03:19 | -10.98791 | -46.33037 | 38020 ft | 440 kts | 214° |
| 2026-05-09 03:19 | -11.04031 | -46.36272 | 38023 ft | 440 kts | 214° |
| 2026-05-09 03:20 | -11.09265 | -46.39504 | 38017 ft | 440 kts | 214° |
| 2026-05-09 03:20 | -11.14507 | -46.42743 | 38010 ft | 441 kts | 214° |
| 2026-05-09 03:21 | -11.19747 | -46.45982 | 38009 ft | 441 kts | 214° |
| 2026-05-09 03:21 | -11.24981 | -46.49219 | 38016 ft | 441 kts | 214° |
| 2026-05-09 03:22 | -11.30226 | -46.52464 | 38017 ft | 441 kts | 214° |
| 2026-05-09 03:22 | -11.35514 | -46.55736 | 38022 ft | 442 kts | 214° |
| 2026-05-09 03:23 | -11.40727 | -46.58965 | 38014 ft | 442 kts | 214° |
| 2026-05-09 03:23 | -11.45991 | -46.62225 | 38023 ft | 442 kts | 214° |
| 2026-05-09 03:24 | -11.51245 | -46.65481 | 38022 ft | 442 kts | 214° |
| 2026-05-09 03:24 | -11.56531 | -46.68759 | 38008 ft | 442 kts | 214° |
| 2026-05-09 03:25 | -11.61778 | -46.72014 | 38001 ft | 442 kts | 214° |
| 2026-05-09 03:25 | -11.67032 | -46.75274 | 37989 ft | 442 kts | 214° |
| 2026-05-09 03:26 | -11.72271 | -46.78525 | 38003 ft | 441 kts | 214° |
| 2026-05-09 03:26 | -11.77520 | -46.81785 | 38008 ft | 442 kts | 214° |
| 2026-05-09 03:27 | -11.82769 | -46.85046 | 37984 ft | 442 kts | 214° |
| 2026-05-09 03:27 | -11.88023 | -46.88312 | 37983 ft | 442 kts | 214° |
| 2026-05-09 03:28 | -11.93252 | -46.91591 | 37982 ft | 441 kts | 217° |
| 2026-05-09 03:28 | -11.98276 | -46.95150 | 37980 ft | 440 kts | 218° |
| 2026-05-09 03:29 | -12.03316 | -46.98705 | 37978 ft | 440 kts | 218° |
| 2026-05-09 03:29 | -12.08348 | -47.02258 | 37976 ft | 440 kts | 218° |
| 2026-05-09 03:30 | -12.13372 | -47.05812 | 37973 ft | 440 kts | 218° |
| 2026-05-09 03:30 | -12.18400 | -47.09371 | 37972 ft | 440 kts | 218° |
| 2026-05-09 03:31 | -12.23436 | -47.12936 | 37974 ft | 440 kts | 218° |
| 2026-05-09 03:31 | -12.28464 | -47.16499 | 37972 ft | 440 kts | 218° |
| 2026-05-09 03:32 | -12.33490 | -47.20062 | 37975 ft | 440 kts | 218° |
| 2026-05-09 03:32 | -12.38516 | -47.23626 | 37973 ft | 440 kts | 218° |
| 2026-05-09 03:33 | -12.43541 | -47.27191 | 37972 ft | 439 kts | 218° |
| 2026-05-09 03:33 | -12.48555 | -47.30750 | 37973 ft | 439 kts | 218° |
| 2026-05-09 03:34 | -12.53575 | -47.34315 | 37972 ft | 439 kts | 218° |
| 2026-05-09 03:34 | -12.58624 | -47.37902 | 37970 ft | 439 kts | 218° |
| 2026-05-09 03:35 | -12.63636 | -47.41464 | 37970 ft | 439 kts | 218° |
| 2026-05-09 03:35 | -12.68643 | -47.45026 | 37968 ft | 438 kts | 218° |
| 2026-05-09 03:36 | -12.73639 | -47.48581 | 37967 ft | 438 kts | 218° |
| 2026-05-09 03:36 | -12.78646 | -47.52145 | 37974 ft | 438 kts | 218° |
| 2026-05-09 03:37 | -12.83677 | -47.55728 | 37969 ft | 437 kts | 218° |
| 2026-05-09 03:37 | -12.88663 | -47.59281 | 37970 ft | 437 kts | 218° |
| 2026-05-09 03:38 | -12.93625 | -47.62819 | 37972 ft | 437 kts | 218° |
| 2026-05-09 03:38 | -12.98614 | -47.66377 | 37972 ft | 436 kts | 218° |
| 2026-05-09 03:39 | -13.03587 | -47.69926 | 37978 ft | 436 kts | 218° |
| 2026-05-09 03:39 | -13.08558 | -47.73476 | 37983 ft | 435 kts | 218° |
| 2026-05-09 03:40 | -13.13526 | -47.77025 | 37992 ft | 435 kts | 218° |
| 2026-05-09 03:40 | -13.18486 | -47.80571 | 37989 ft | 434 kts | 218° |
| 2026-05-09 03:41 | -13.23450 | -47.84118 | 37997 ft | 435 kts | 218° |
| 2026-05-09 03:41 | -13.28405 | -47.87664 | 37873 ft | 435 kts | 218° |
| 2026-05-09 03:42 | -13.30887 | -47.89441 | 37603 ft | 435 kts | 218° |
| 2026-05-09 03:42 | -13.33375 | -47.91223 | 37352 ft | 436 kts | 218° |
| 2026-05-09 03:42 | -13.35862 | -47.93005 | 37087 ft | 438 kts | 218° |
| 2026-05-09 03:42 | -13.38369 | -47.94801 | 36843 ft | 439 kts | 218° |
| 2026-05-09 03:43 | -13.40874 | -47.96596 | 36594 ft | 440 kts | 218° |
| 2026-05-09 03:43 | -13.43387 | -47.98397 | 36347 ft | 441 kts | 218° |
| 2026-05-09 03:43 | -13.45908 | -48.00203 | 36103 ft | 443 kts | 218° |
| 2026-05-09 03:43 | -13.48437 | -48.02016 | 35864 ft | 444 kts | 218° |
| 2026-05-09 03:44 | -13.51000 | -48.03854 | 35627 ft | 444 kts | 218° |
| 2026-05-09 03:44 | -13.53508 | -48.05654 | 35382 ft | 446 kts | 218° |
| 2026-05-09 03:44 | -13.56050 | -48.07479 | 35139 ft | 447 kts | 218° |
| 2026-05-09 03:44 | -13.58604 | -48.09312 | 34934 ft | 448 kts | 218° |
| 2026-05-09 03:45 | -13.61149 | -48.11140 | 34698 ft | 450 kts | 218° |
| 2026-05-09 03:45 | -13.63727 | -48.12991 | 34460 ft | 451 kts | 218° |
| 2026-05-09 03:45 | -13.66330 | -48.14861 | 34225 ft | 452 kts | 217° |
| 2026-05-09 03:45 | -13.68881 | -48.16694 | 34004 ft | 452 kts | 218° |
| 2026-05-09 03:46 | -13.71449 | -48.18539 | 33744 ft | 450 kts | 218° |
| 2026-05-09 03:46 | -13.74011 | -48.20381 | 33481 ft | 452 kts | 218° |
| 2026-05-09 03:46 | -13.76590 | -48.22237 | 33238 ft | 453 kts | 218° |
| 2026-05-09 03:46 | -13.79177 | -48.24097 | 32992 ft | 454 kts | 217° |
| 2026-05-09 03:47 | -13.81770 | -48.25963 | 32734 ft | 455 kts | 217° |
| 2026-05-09 03:47 | -13.84361 | -48.27829 | 32490 ft | 456 kts | 217° |
| 2026-05-09 03:47 | -13.86119 | -48.29095 | 32323 ft | 457 kts | 217° |
| 2026-05-09 03:47 | -13.88727 | -48.30973 | 32072 ft | 458 kts | 217° |
| 2026-05-09 03:48 | -13.91341 | -48.32856 | 31842 ft | 459 kts | 217° |
| 2026-05-09 03:48 | -13.93958 | -48.34741 | 31610 ft | 460 kts | 217° |
| 2026-05-09 03:48 | -13.96582 | -48.36633 | 31367 ft | 461 kts | 217° |
| 2026-05-09 03:48 | -13.99205 | -48.38524 | 31129 ft | 462 kts | 217° |
| 2026-05-09 03:49 | -14.01840 | -48.40423 | 30899 ft | 463 kts | 217° |
| 2026-05-09 03:49 | -14.04473 | -48.42322 | 30664 ft | 463 kts | 217° |
| 2026-05-09 03:49 | -14.07107 | -48.44223 | 30435 ft | 462 kts | 217° |
| 2026-05-09 03:49 | -14.09738 | -48.46121 | 30211 ft | 461 kts | 217° |
| 2026-05-09 03:50 | -14.12364 | -48.48017 | 29963 ft | 460 kts | 216° |
| 2026-05-09 03:50 | -14.15116 | -48.49698 | 29703 ft | 460 kts | 207° |
| 2026-05-09 03:50 | -14.18088 | -48.50915 | 29438 ft | 461 kts | 198° |
| 2026-05-09 03:50 | -14.21214 | -48.51650 | 29178 ft | 461 kts | 189° |
| 2026-05-09 03:51 | -14.24390 | -48.52065 | 28920 ft | 460 kts | 189° |
| 2026-05-09 03:51 | -14.27550 | -48.52480 | 28666 ft | 458 kts | 189° |
| 2026-05-09 03:51 | -14.30705 | -48.52898 | 28411 ft | 456 kts | 189° |
| 2026-05-09 03:51 | -14.33841 | -48.53315 | 28156 ft | 454 kts | 188° |
| 2026-05-09 03:52 | -14.37007 | -48.53735 | 27913 ft | 452 kts | 188° |
| 2026-05-09 03:52 | -14.40111 | -48.54146 | 27665 ft | 450 kts | 188° |
| 2026-05-09 03:52 | -14.43216 | -48.54557 | 27420 ft | 449 kts | 188° |
| 2026-05-09 03:52 | -14.46302 | -48.54966 | 27179 ft | 447 kts | 188° |
| 2026-05-09 03:53 | -14.49373 | -48.55373 | 26937 ft | 445 kts | 188° |
| 2026-05-09 03:53 | -14.52442 | -48.55779 | 26698 ft | 443 kts | 188° |
| 2026-05-09 03:53 | -14.55497 | -48.56184 | 26467 ft | 442 kts | 188° |
| 2026-05-09 03:53 | -14.58535 | -48.56587 | 26236 ft | 440 kts | 188° |
| 2026-05-09 03:54 | -14.61575 | -48.56990 | 25998 ft | 439 kts | 188° |
| 2026-05-09 03:54 | -14.64594 | -48.57390 | 25768 ft | 437 kts | 188° |
| 2026-05-09 03:54 | -14.67606 | -48.57790 | 25536 ft | 436 kts | 188° |
| 2026-05-09 03:54 | -14.70613 | -48.58189 | 25307 ft | 434 kts | 188° |
| 2026-05-09 03:55 | -14.73601 | -48.58586 | 25083 ft | 433 kts | 188° |
| 2026-05-09 03:55 | -14.76583 | -48.58982 | 24857 ft | 431 kts | 188° |
| 2026-05-09 03:55 | -14.79550 | -48.59376 | 24641 ft | 430 kts | 187° |
| 2026-05-09 03:55 | -14.82511 | -48.59769 | 24420 ft | 428 kts | 188° |
| 2026-05-09 03:56 | -14.85467 | -48.60162 | 24203 ft | 427 kts | 188° |
| 2026-05-09 03:56 | -14.88410 | -48.60554 | 23985 ft | 426 kts | 187° |
| 2026-05-09 03:56 | -14.91346 | -48.60944 | 23716 ft | 425 kts | 187° |
| 2026-05-09 03:56 | -14.94286 | -48.61336 | 23063 ft | 428 kts | 187° |
| 2026-05-09 03:57 | -14.97222 | -48.61727 | 22525 ft | 423 kts | 187° |
| 2026-05-09 03:57 | -15.00132 | -48.62001 | 21949 ft | 418 kts | 179° |
| 2026-05-09 03:57 | -15.03000 | -48.61679 | 21395 ft | 413 kts | 166° |
| 2026-05-09 03:57 | -15.05679 | -48.60736 | 21116 ft | 404 kts | 154° |
| 2026-05-09 03:58 | -15.08204 | -48.59425 | 21031 ft | 409 kts | 152° |
| 2026-05-09 03:58 | -15.10754 | -48.58105 | 21023 ft | 410 kts | 153° |
| 2026-05-09 03:58 | -15.13308 | -48.56787 | 21013 ft | 410 kts | 153° |
| 2026-05-09 03:58 | -15.15861 | -48.55469 | 21022 ft | 410 kts | 153° |
| 2026-05-09 03:59 | -15.18410 | -48.54150 | 21034 ft | 410 kts | 153° |
| 2026-05-09 03:59 | -15.20965 | -48.52825 | 21034 ft | 410 kts | 153° |
| 2026-05-09 03:59 | -15.23506 | -48.51507 | 21035 ft | 410 kts | 153° |
| 2026-05-09 03:59 | -15.26055 | -48.50183 | 21033 ft | 410 kts | 153° |
| 2026-05-09 04:00 | -15.28605 | -48.48858 | 21034 ft | 410 kts | 152° |
| 2026-05-09 04:00 | -15.31155 | -48.47533 | 21046 ft | 410 kts | 152° |
| 2026-05-09 04:00 | -15.33708 | -48.46206 | 21045 ft | 410 kts | 152° |
| 2026-05-09 04:00 | -15.36256 | -48.44880 | 21046 ft | 411 kts | 153° |
| 2026-05-09 04:01 | -15.38812 | -48.43551 | 21045 ft | 411 kts | 152° |
| 2026-05-09 04:01 | -15.41365 | -48.42223 | 21051 ft | 410 kts | 152° |
| 2026-05-09 04:01 | -15.43906 | -48.40901 | 20944 ft | 406 kts | 152° |
| 2026-05-09 04:01 | -15.46397 | -48.39606 | 20810 ft | 395 kts | 152° |
| 2026-05-09 04:02 | -15.48814 | -48.38348 | 20348 ft | 383 kts | 152° |
| 2026-05-09 04:02 | -15.51179 | -48.37118 | 19696 ft | 378 kts | 152° |
| 2026-05-09 04:02 | -15.53517 | -48.35900 | 19042 ft | 373 kts | 152° |
| 2026-05-09 04:02 | -15.55819 | -48.34701 | 18399 ft | 369 kts | 152° |
| 2026-05-09 04:03 | -15.58101 | -48.33512 | 17735 ft | 364 kts | 152° |
| 2026-05-09 04:03 | -15.60331 | -48.32349 | 17063 ft | 359 kts | 152° |
| 2026-05-09 04:03 | -15.62566 | -48.31196 | 16399 ft | 354 kts | 152° |
| 2026-05-09 04:03 | -15.64748 | -48.30076 | 15758 ft | 350 kts | 152° |
| 2026-05-09 04:04 | -15.66915 | -48.28963 | 15129 ft | 346 kts | 152° |
| 2026-05-09 04:04 | -15.69062 | -48.27859 | 14511 ft | 342 kts | 152° |
| 2026-05-09 04:04 | -15.71185 | -48.26767 | 13901 ft | 339 kts | 152° |
| 2026-05-09 04:04 | -15.73285 | -48.25685 | 13225 ft | 335 kts | 152° |
| 2026-05-09 04:05 | -15.75365 | -48.24613 | 12551 ft | 332 kts | 153° |
| 2026-05-09 04:05 | -15.77431 | -48.23561 | 11891 ft | 329 kts | 155° |
| 2026-05-09 04:05 | -15.79584 | -48.22792 | 11252 ft | 327 kts | 166° |
| 2026-05-09 04:05 | -15.81818 | -48.22407 | 10587 ft | 325 kts | 173° |
| 2026-05-09 04:06 | -15.84007 | -48.21864 | 9877 ft | 324 kts | 154° |
| 2026-05-09 04:06 | -15.85818 | -48.20518 | 9126 ft | 320 kts | 130° |
| 2026-05-09 04:06 | -15.87011 | -48.18606 | 8402 ft | 317 kts | 114° |
| 2026-05-09 04:06 | -15.87726 | -48.16471 | 7687 ft | 313 kts | 99° |
| 2026-05-09 04:07 | -15.87812 | -48.14260 | 7288 ft | 299 kts | 85° |
| 2026-05-09 04:07 | -15.87641 | -48.12168 | 6977 ft | 284 kts | 83° |
| 2026-05-09 04:07 | -15.87477 | -48.10159 | 6649 ft | 273 kts | 84° |
| 2026-05-09 04:07 | -15.87349 | -48.08240 | 6314 ft | 259 kts | 85° |
| 2026-05-09 04:08 | -15.87234 | -48.06473 | 6007 ft | 231 kts | 85° |
| 2026-05-09 04:08 | -15.87134 | -48.04899 | 5714 ft | 207 kts | 85° |
| 2026-05-09 04:08 | -15.87044 | -48.03492 | 5517 ft | 182 kts | 85° |
| 2026-05-09 04:08 | -15.86965 | -48.02257 | 5294 ft | 159 kts | 85° |
| 2026-05-09 04:09 | -15.86897 | -48.01187 | 5101 ft | 140 kts | 85° |
| 2026-05-09 04:09 | -15.86834 | -48.00224 | 4920 ft | 133 kts | 86° |
| 2026-05-09 04:09 | -15.86772 | -47.99253 | 4753 ft | 135 kts | 86° |
| 2026-05-09 04:09 | -15.86710 | -47.98293 | 4585 ft | 135 kts | 86° |
| 2026-05-09 04:10 | -15.86651 | -47.97302 | 4369 ft | 137 kts | 86° |
| 2026-05-09 04:10 | -15.86612 | -47.96309 | 4086 ft | 137 kts | 87° |
| 2026-05-09 04:10 | -15.86541 | -47.95331 | 3934 ft | 138 kts | 84° |
| 2026-05-09 04:10 | -15.86465 | -47.94342 | 3796 ft | 137 kts | 85° |
| 2026-05-09 04:11 | -15.86399 | -47.93358 | 3618 ft | 137 kts | 84° |
| 2026-05-09 04:11 | -15.86340 | -47.92382 | 3474 ft | 133 kts | 86° |
| 2026-05-09 04:11 | -15.86283 | -47.91604 | 3463 ft | 70 kts | 86° |
| 2026-05-09 04:11 | -15.86293 | -47.91380 | 3464 ft | 12 kts | 133° |
| 2026-05-09 04:12 | -15.86351 | -47.91408 | 3464 ft | 0 kts | 235° |
| 2026-05-09 04:12 | -15.86362 | -47.91423 | 3464 ft | 7 kts | 235° |
| 2026-05-09 04:12 | -15.86383 | -47.91454 | 3463 ft | 1 kts | 234° |
| 2026-05-09 04:12 | -15.86396 | -47.91474 | 3463 ft | 6 kts | 235° |
| 2026-05-09 04:13 | -15.86430 | -47.91526 | 3463 ft | 11 kts | 236° |
| 2026-05-09 04:13 | -15.86471 | -47.91604 | 3463 ft | 13 kts | 253° |
| 2026-05-09 04:13 | -15.86484 | -47.91702 | 3466 ft | 14 kts | 265° |
| 2026-05-09 04:13 | -15.86510 | -47.91802 | 3468 ft | 13 kts | 212° |
| 2026-05-09 04:14 | -15.86601 | -47.91811 | 3470 ft | 9 kts | 179° |
| 2026-05-09 04:14 | -15.86612 | -47.91810 | 3469 ft | 3 kts | 177° |
| 2026-05-09 04:14 | -15.86651 | -47.91808 | 3471 ft | 8 kts | 176° |
| 2026-05-09 04:14 | -15.86697 | -47.91805 | 3472 ft | 3 kts | 175° |
| 2026-05-09 04:15 | -15.86708 | -47.91804 | 3472 ft | 0 kts | 175° |